Time;durP1;ratioP1;P1;durP2;ratioP2;P2;SDS_P1;SDS_P2;PMS_P1;PMS_P2;Temp;Humidity;BMP_temperature;BMP_pressure;BME280_temperature;BME280_humidity;BME280_pressure;Samples;Min_cycle;Max_cycle;Signal;HPM_P1;HPM_P2
2024/03/30 00:04:39;;;;;;;9.45;4.70;;;;;;;9.06;68.95;98107.63;10410128;28;20045;-60
2024/03/30 00:09:40;;;;;;;7.03;4.10;;;;;;;9.07;68.80;98107.53;10427160;28;20078;-59
2024/03/30 00:14:41;;;;;;;7.40;4.50;;;;;;;9.12;68.70;98099.28;10428111;28;20072;-60
2024/03/30 00:19:42;;;;;;;6.43;3.80;;;;;;;9.19;68.57;98088.25;10430086;28;20200;-59
2024/03/30 00:24:43;;;;;;;7.68;4.30;;;;;;;9.28;68.21;98087.47;10408468;28;20364;-60
2024/03/30 00:29:46;;;;;;;8.27;5.05;;;;;;;9.26;68.25;98088.56;10396469;28;20051;-60
2024/03/30 00:34:47;;;;;;;6.55;3.50;;;;;;;9.23;68.41;98094.03;10429688;28;20043;-60
2024/03/30 00:39:48;;;;;;;7.50;3.92;;;;;;;9.23;68.38;98094.03;10395978;28;20416;-60
2024/03/30 00:44:49;;;;;;;5.90;3.17;;;;;;;9.29;68.13;98078.72;10395826;28;20048;-59
2024/03/30 00:49:50;;;;;;;6.43;3.60;;;;;;;9.30;67.92;98085.56;10427523;28;20135;-60
2024/03/30 00:54:51;;;;;;;7.03;3.67;;;;;;;9.32;67.88;98080.25;10428444;28;20044;-60
2024/03/30 00:59:52;;;;;;;9.80;5.95;;;;;;;9.24;68.06;98070.41;10411771;28;20375;-59
2024/03/30 01:04:53;;;;;;;8.60;4.43;;;;;;;9.23;68.02;98073.16;10427953;28;20060;-59
2024/03/30 01:09:54;;;;;;;7.45;4.15;;;;;;;9.25;67.89;98074.69;10412807;28;20408;-60
2024/03/30 01:14:55;;;;;;;14.48;4.93;;;;;;;9.04;67.67;98046.97;10394088;28;20114;-60
2024/03/30 01:19:56;;;;;;;8.48;4.82;;;;;;;8.91;68.13;98059.38;10429538;28;20041;-60
2024/03/30 01:24:58;;;;;;;9.32;4.57;;;;;;;8.90;68.26;98045.50;10426669;28;20029;-60
2024/03/30 01:30:07;;;;;;;9.10;4.88;;;;;;;8.86;68.58;98036.28;10427247;28;20045;-60
2024/03/30 01:35:08;;;;;;;9.70;4.78;;;;;;;8.91;68.29;98046.34;10426365;28;20110;-60
2024/03/30 01:40:09;;;;;;;7.32;3.97;;;;;;;8.92;68.16;98056.63;10424677;28;20405;-60
2024/03/30 01:45:10;;;;;;;8.48;4.60;;;;;;;8.86;68.12;98059.75;10426174;28;20131;-60
2024/03/30 01:50:11;;;;;;;11.05;4.13;;;;;;;8.80;68.10;98066.28;10409975;28;20079;-60
2024/03/30 01:55:12;;;;;;;8.65;4.93;;;;;;;8.78;68.15;98059.56;10417673;28;20456;-60
2024/03/30 02:00:14;;;;;;;25.38;5.65;;;;;;;8.76;68.32;98053.63;10435888;28;20070;-61
2024/03/30 02:05:15;;;;;;;80.40;6.30;;;;;;;8.57;68.14;98053.47;10413146;28;20041;-60
2024/03/30 02:10:16;;;;;;;16.88;4.85;;;;;;;8.58;68.33;98065.56;10431891;28;20472;-61
2024/03/30 02:15:17;;;;;;;118.65;6.88;;;;;;;8.62;68.16;98048.72;10430509;28;20053;-60
2024/03/30 02:20:19;;;;;;;56.05;5.55;;;;;;;8.57;68.29;98048.25;10435328;28;20481;-60
2024/03/30 02:25:20;;;;;;;30.15;4.03;;;;;;;8.55;68.17;98043.19;10430376;28;20137;-60
2024/03/30 02:30:26;;;;;;;128.85;7.03;;;;;;;8.44;68.17;98043.25;10418021;28;20052;-60
2024/03/30 02:35:27;;;;;;;81.65;6.20;;;;;;;8.34;68.29;98037.13;10434248;28;20151;-60
2024/03/30 02:40:28;;;;;;;94.88;5.55;;;;;;;8.46;68.25;98040.50;10435918;28;20451;-61
2024/03/30 02:45:29;;;;;;;37.22;5.75;;;;;;;8.52;67.94;98035.63;10451039;28;20135;-60
2024/03/30 02:50:30;;;;;;;171.10;6.78;;;;;;;8.46;67.84;98033.53;10434474;28;20056;-60
2024/03/30 02:55:31;;;;;;;205.15;7.32;;;;;;;8.47;67.79;98027.34;10431492;28;20048;-60
2024/03/30 03:00:32;;;;;;;89.05;4.68;;;;;;;8.37;67.87;98012.59;10430889;28;20068;-60
2024/03/30 03:05:33;;;;;;;18.92;3.67;;;;;;;8.40;67.89;98013.19;10431224;28;20079;-60
2024/03/30 03:10:34;;;;;;;42.38;3.70;;;;;;;8.37;67.75;98021.22;10420141;28;20040;-60
2024/03/30 03:15:37;;;;;;;70.95;5.03;;;;;;;8.41;67.77;98014.81;10415414;28;20398;-60
2024/03/30 03:20:38;;;;;;;156.60;5.85;;;;;;;8.49;67.83;98016.78;10400633;28;20064;-60
2024/03/30 03:25:39;;;;;;;54.67;4.22;;;;;;;8.52;67.67;98020.00;10415767;28;20717;-59
2024/03/30 03:30:41;;;;;;;6.50;3.38;;;;;;;8.57;67.63;98007.41;10416095;28;20063;-60
2024/03/30 03:35:42;;;;;;;34.88;4.53;;;;;;;8.63;67.63;98004.28;10415345;28;20094;-60
2024/03/30 03:40:43;;;;;;;6.05;3.45;;;;;;;8.68;67.47;98002.16;10428478;28;20072;-60
2024/03/30 03:45:48;;;;;;;6.63;3.92;;;;;;;8.81;67.47;98005.38;10433164;28;20029;-60
2024/03/30 03:50:49;;;;;;;10.10;4.18;;;;;;;8.80;67.27;98018.53;10430390;28;20094;-60
2024/03/30 03:55:50;;;;;;;52.60;5.40;;;;;;;8.88;67.30;98017.91;10431394;28;20056;-59
2024/03/30 04:00:50;;;;;;;40.42;5.43;;;;;;;8.95;67.07;98021.66;10430990;28;20219;-60
2024/03/30 04:05:51;;;;;;;15.10;5.90;;;;;;;8.92;67.26;98027.94;10416437;28;20045;-59
2024/03/30 04:11:00;;;;;;;10.30;5.75;;;;;;;8.91;67.38;98021.09;10415872;28;20072;-59
2024/03/30 04:16:02;;;;;;;10.05;4.78;;;;;;;8.87;67.11;98027.53;10425852;28;20510;-60
2024/03/30 04:21:04;;;;;;;40.90;5.60;;;;;;;8.93;67.22;98020.97;10429416;28;20049;-59
2024/03/30 04:26:07;;;;;;;10.80;4.70;;;;;;;8.85;67.29;98024.22;10413654;28;20554;-60
2024/03/30 04:31:08;;;;;;;108.05;6.63;;;;;;;8.86;67.32;98018.03;10429224;28;20049;-60
2024/03/30 04:36:09;;;;;;;63.10;4.60;;;;;;;8.83;67.61;98023.53;10430998;28;20120;-60
2024/03/30 04:41:12;;;;;;;17.40;3.80;;;;;;;8.89;67.25;98025.63;10429966;28;20052;-59
2024/03/30 04:46:13;;;;;;;42.33;4.90;;;;;;;8.81;67.31;98025.44;10410761;28;20048;-60
2024/03/30 04:51:14;;;;;;;64.63;5.25;;;;;;;8.78;67.37;98034.31;10414155;28;20045;-59
2024/03/30 04:56:15;;;;;;;90.88;5.10;;;;;;;8.73;67.38;98040.84;10430223;28;20416;-59
2024/03/30 05:01:16;;;;;;;42.70;4.72;;;;;;;8.75;67.35;98031.16;10429109;28;20053;-59
2024/03/30 05:06:17;;;;;;;14.82;3.65;;;;;;;8.76;67.21;98027.56;10395761;28;20222;-59
2024/03/30 05:11:18;;;;;;;5.90;3.38;;;;;;;8.65;67.08;98032.81;10411529;28;20049;-60
2024/03/30 05:16:19;;;;;;;7.05;3.13;;;;;;;8.57;67.36;98027.41;10426212;28;20076;-59
2024/03/30 05:21:20;;;;;;;6.25;3.58;;;;;;;8.58;67.24;98024.72;10409405;28;20056;-60
2024/03/30 05:26:21;;;;;;;6.32;3.50;;;;;;;8.56;67.16;98012.75;10430343;28;20132;-59
2024/03/30 05:31:25;;;;;;;47.75;4.65;;;;;;;8.56;67.48;98008.38;10420712;28;20084;-60
2024/03/30 05:36:26;;;;;;;16.67;3.90;;;;;;;8.58;67.27;98008.25;10419034;28;20041;-60
2024/03/30 05:41:27;;;;;;;41.42;3.83;;;;;;;8.51;67.18;98018.31;10437215;28;20049;-60
2024/03/30 05:46:28;;;;;;;7.43;3.50;;;;;;;8.50;67.15;98015.84;10419686;28;20044;-60
2024/03/30 05:51:29;;;;;;;73.80;4.22;;;;;;;8.51;67.12;98012.28;10435849;28;20052;-59
2024/03/30 05:56:30;;;;;;;4.90;2.97;;;;;;;8.33;67.56;98011.19;10434190;28;20056;-59
2024/03/30 06:01:31;;;;;;;5.55;3.03;;;;;;;8.21;67.48;98010.41;10431566;28;20040;-59
2024/03/30 06:06:32;;;;;;;7.72;3.03;;;;;;;8.30;67.69;98011.44;10465148;28;20156;-59
2024/03/30 06:11:33;;;;;;;41.88;3.63;;;;;;;8.17;67.88;97997.75;10432531;28;20051;-59
2024/03/30 06:16:34;;;;;;;13.88;3.65;;;;;;;8.26;67.75;98003.03;10433323;28;20888;-59
2024/03/30 06:21:35;;;;;;;19.70;4.28;;;;;;;8.47;67.52;98005.66;10434576;28;20140;-59
2024/03/30 06:26:36;;;;;;;26.48;3.40;;;;;;;8.48;67.41;97996.91;10433612;28;20102;-59
2024/03/30 06:31:37;;;;;;;16.38;4.10;;;;;;;8.62;67.27;98004.44;10436126;28;20098;-59
2024/03/30 06:36:38;;;;;;;78.82;5.78;;;;;;;8.70;67.47;98004.63;10434355;28;20052;-59
2024/03/30 06:46:59;;;;;;;7.10;3.05;;;;;;;8.94;67.08;98006.97;10432789;28;20048;-59
2024/03/30 06:51:59;;;;;;;11.60;3.50;;;;;;;8.91;67.30;98015.06;10432357;28;20131;-59
2024/03/30 06:57:00;;;;;;;6.75;3.20;;;;;;;9.02;67.20;98018.41;10466674;28;20286;-60
2024/03/30 07:02:01;;;;;;;7.18;3.28;;;;;;;9.22;66.97;98024.59;10418944;28;20053;-60
2024/03/30 07:07:03;;;;;;;5.57;3.15;;;;;;;9.40;66.85;98026.44;10432488;28;20795;-60
2024/03/30 07:12:04;;;;;;;6.85;2.97;;;;;;;9.58;66.65;98017.03;10432113;28;20057;-60
2024/03/30 07:17:05;;;;;;;5.88;3.47;;;;;;;9.81;66.51;98029.94;10429646;28;20045;-59
2024/03/30 07:22:06;;;;;;;5.07;3.30;;;;;;;10.01;66.46;98034.25;10429013;28;20535;-60
2024/03/30 07:27:08;;;;;;;5.93;3.42;;;;;;;10.18;66.34;98033.59;10429611;28;20120;-60
2024/03/30 07:32:08;;;;;;;6.22;3.55;;;;;;;10.29;66.27;98041.31;10432981;28;20402;-60
2024/03/30 07:37:09;;;;;;;8.15;3.47;;;;;;;10.21;66.33;98038.56;10407710;28;20049;-60
2024/03/30 07:42:11;;;;;;;6.95;3.67;;;;;;;10.28;66.25;98048.31;10427609;28;20519;-58
2024/03/30 07:47:12;;;;;;;5.65;3.05;;;;;;;10.42;66.10;98039.25;10427682;28;20551;-60
2024/03/30 07:52:13;;;;;;;6.72;3.38;;;;;;;10.32;66.25;98052.31;10434249;28;20358;-60
2024/03/30 07:57:14;;;;;;;5.88;3.53;;;;;;;10.30;66.39;98048.19;10426114;28;20072;-60
2024/03/30 08:02:16;;;;;;;6.05;3.33;;;;;;;10.37;66.37;98039.69;10425829;28;20115;-60
2024/03/30 08:07:16;;;;;;;5.40;2.70;;;;;;;10.59;66.03;98040.38;10405982;28;20033;-60
2024/03/30 08:12:17;;;;;;;5.55;2.92;;;;;;;10.66;65.88;98038.88;10423508;28;20072;-60
2024/03/30 08:17:18;;;;;;;6.05;3.05;;;;;;;10.72;65.93;98020.84;10420927;28;20053;-59
2024/03/30 08:22:19;;;;;;;7.03;3.53;;;;;;;10.58;66.30;98023.88;10409710;28;20692;-60
2024/03/30 08:27:20;;;;;;;5.05;3.28;;;;;;;10.87;65.86;98024.66;10428136;28;20048;-60
2024/03/30 08:32:21;;;;;;;5.22;2.67;;;;;;;10.96;65.45;98029.06;10411084;28;20548;-60
2024/03/30 08:37:23;;;;;;;6.47;3.38;;;;;;;11.08;65.54;98021.91;10427932;28;20056;-60
2024/03/30 08:42:23;;;;;;;4.85;2.60;;;;;;;11.32;65.15;98024.88;10410938;28;20052;-60
2024/03/30 08:47:24;;;;;;;5.32;3.08;;;;;;;11.54;64.84;98018.50;10409682;28;20045;-60
2024/03/30 08:52:25;;;;;;;4.20;2.45;;;;;;;11.78;63.97;98029.28;10423800;28;20033;-60
2024/03/30 08:57:26;;;;;;;4.00;2.28;;;;;;;11.85;63.82;98022.47;10427420;28;20175;-60
2024/03/30 09:02:31;;;;;;;4.03;2.42;;;;;;;12.01;63.70;98017.41;10425651;28;20075;-61
2024/03/30 09:07:32;;;;;;;4.43;2.20;;;;;;;12.26;63.33;98013.25;10426749;28;20041;-60
2024/03/30 09:12:33;;;;;;;4.78;2.30;;;;;;;12.37;63.11;98019.16;10409381;28;20153;-60
2024/03/30 09:17:34;;;;;;;4.68;2.50;;;;;;;12.49;62.83;98027.63;10409773;28;20056;-60
2024/03/30 09:22:35;;;;;;;5.85;2.60;;;;;;;12.40;62.99;98023.25;10410380;28;20052;-60
2024/03/30 09:27:36;;;;;;;6.38;3.08;;;;;;;12.26;63.39;98037.69;10425775;28;20091;-60
2024/03/30 09:32:41;;;;;;;5.60;2.92;;;;;;;12.38;62.56;98036.53;10421133;28;20074;-60
2024/03/30 09:37:42;;;;;;;4.65;2.45;;;;;;;12.39;62.56;98042.59;10401186;28;20037;-59
2024/03/30 09:42:44;;;;;;;3.67;2.13;;;;;;;12.62;62.57;98044.63;10424448;28;20075;-60
2024/03/30 09:47:48;;;;;;;3.90;2.42;;;;;;;12.93;62.00;98050.28;10419941;28;20052;-60
2024/03/30 09:52:51;;;;;;;4.90;2.92;;;;;;;13.19;61.58;98052.97;10420147;28;20504;-60
2024/03/30 09:57:53;;;;;;;4.40;2.28;;;;;;;13.11;61.75;98029.28;10405942;28;20045;-60
2024/03/30 10:02:54;;;;;;;4.57;2.70;;;;;;;13.24;61.54;98029.69;10424015;28;20076;-60
2024/03/30 10:08:02;;;;;;;6.60;1.90;;;;;;;13.36;60.86;98049.47;10391227;28;20084;-60
2024/03/30 10:13:41;;;;;;;3.72;2.15;;;;;;;13.64;61.09;98058.84;10425728;28;20437;-60
2024/03/30 10:18:45;;;;;;;4.72;1.85;;;;;;;13.88;60.57;98066.84;10402157;28;20044;-60
2024/03/30 10:23:47;;;;;;;4.55;2.10;;;;;;;13.95;60.46;98067.88;10429591;28;20052;-60
2024/03/30 10:28:48;;;;;;;4.05;2.10;;;;;;;14.00;60.13;98062.16;10427038;28;20049;-61
2024/03/30 10:33:48;;;;;;;5.05;1.75;;;;;;;14.16;59.87;98043.81;10432376;28;20045;-60
2024/03/30 10:38:49;;;;;;;4.80;2.42;;;;;;;14.22;59.85;98053.69;10428586;28;20090;-60
2024/03/30 10:43:51;;;;;;;6.00;2.30;;;;;;;14.07;59.93;98063.16;10410821;28;20063;-60
2024/03/30 10:48:52;;;;;;;3.97;2.45;;;;;;;14.00;60.11;98059.53;10414743;28;20122;-60
2024/03/30 10:54:03;;;;;;;4.38;1.90;;;;;;;13.82;60.06;98067.47;10431328;28;20272;-60
2024/03/30 10:59:05;;;;;;;8.82;2.42;;;;;;;13.73;60.26;98071.91;10433253;28;20130;-60
2024/03/30 11:04:09;;;;;;;3.55;1.60;;;;;;;13.71;60.19;98075.66;10429877;28;20053;-60
2024/03/30 11:09:12;;;;;;;4.63;1.65;;;;;;;13.64;60.05;98066.72;10431805;28;20053;-61
2024/03/30 11:14:14;;;;;;;3.15;1.50;;;;;;;13.35;60.79;98071.47;10464062;28;20102;-60
2024/03/30 11:19:48;;;;;;;4.78;2.00;;;;;;;13.10;61.48;98070.47;10399310;28;20068;-61
2024/03/30 11:24:59;;;;;;;4.55;1.75;;;;;;;12.96;61.94;98063.94;10440092;28;20445;-61
2024/03/30 11:30:14;;;;;;;3.88;1.95;;;;;;;12.98;61.90;98062.97;10405827;28;20040;-61
2024/03/30 11:35:18;;;;;;;3.88;1.73;;;;;;;13.26;61.38;98070.56;10422668;28;20041;-60
2024/03/30 11:40:30;;;;;;;2.97;1.48;;;;;;;13.50;61.31;98070.75;10412821;28;20140;-61
2024/03/30 11:45:34;;;;;;;5.55;1.80;;;;;;;13.63;61.29;98080.84;10454210;28;20056;-61
2024/03/30 11:50:36;;;;;;;4.53;1.67;;;;;;;13.74;61.42;98084.03;10395114;28;20989;-61
2024/03/30 11:55:37;;;;;;;4.13;1.85;;;;;;;13.85;61.36;98069.81;10406024;28;20037;-61
2024/03/30 12:00:48;;;;;;;5.35;1.92;;;;;;;13.83;61.16;98052.53;10427476;28;21841;-61
2024/03/30 12:05:55;;;;;;;3.53;2.22;;;;;;;13.70;61.47;98045.09;10417870;28;20041;-61
2024/03/30 12:11:01;;;;;;;4.05;2.08;;;;;;;13.79;61.52;98054.66;10420658;28;20057;-61
2024/03/30 12:16:03;;;;;;;3.03;1.70;;;;;;;13.85;61.46;98055.84;10422565;28;20051;-61
2024/03/30 12:21:04;;;;;;;2.78;1.50;;;;;;;13.86;61.47;98054.88;10427163;28;20390;-59
2024/03/30 12:26:06;;;;;;;7.63;1.92;;;;;;;13.78;61.41;98051.22;10428356;28;20036;-59
2024/03/30 12:31:07;;;;;;;4.15;1.75;;;;;;;13.68;61.40;98042.63;10416297;28;20484;-58
2024/03/30 12:36:09;;;;;;;5.45;1.60;;;;;;;13.30;62.05;98036.94;10431534;28;20049;-59
2024/03/30 12:41:10;;;;;;;4.30;1.75;;;;;;;13.06;62.81;98034.16;10415595;28;20076;-60
2024/03/30 12:46:11;;;;;;;7.28;2.00;;;;;;;13.00;62.35;98035.59;10414636;28;20041;-60
2024/03/30 12:51:12;;;;;;;9.73;1.73;;;;;;;13.05;62.26;98028.09;10431687;28;20563;-59
2024/03/30 12:56:20;;;;;;;3.00;1.60;;;;;;;12.98;62.92;98027.88;10415994;28;20056;-59
2024/03/30 13:01:24;;;;;;;7.93;1.70;;;;;;;13.09;62.54;98018.13;10430632;28;20044;-60
2024/03/30 13:06:25;;;;;;;3.15;1.58;;;;;;;13.21;62.19;98022.16;10431674;28;20534;-59
2024/03/30 13:11:26;;;;;;;5.38;2.22;;;;;;;13.25;62.23;98037.41;10431236;28;20048;-59
2024/03/30 13:16:27;;;;;;;3.20;1.70;;;;;;;13.31;61.93;98031.53;10430930;28;20056;-59
2024/03/30 13:21:28;;;;;;;4.13;2.15;;;;;;;13.33;62.21;98036.66;10431169;28;20048;-60
2024/03/30 13:26:30;;;;;;;5.18;1.83;;;;;;;13.36;62.25;98036.34;10431070;28;20049;-60
2024/03/30 13:31:31;;;;;;;4.57;1.88;;;;;;;13.46;62.47;98042.34;10464526;28;20044;-60
2024/03/30 13:36:32;;;;;;;3.67;1.92;;;;;;;13.64;61.98;98048.34;10430906;28;20053;-60
2024/03/30 13:41:33;;;;;;;7.30;2.05;;;;;;;13.47;62.33;98057.13;10430780;28;20049;-60
2024/03/30 13:46:34;;;;;;;3.58;2.03;;;;;;;13.50;62.49;98059.44;10416844;28;20037;-60
2024/03/30 13:51:35;;;;;;;9.90;2.67;;;;;;;13.36;62.55;98054.72;10422113;28;20052;-60
2024/03/30 13:56:36;;;;;;;8.13;2.92;;;;;;;13.53;62.49;98061.75;10438168;28;20044;-60
2024/03/30 14:01:37;;;;;;;4.53;1.83;;;;;;;13.48;62.35;98069.25;10437870;28;20138;-60
2024/03/30 14:06:39;;;;;;;6.32;2.88;;;;;;;13.42;62.60;98059.34;10421860;28;20110;-60
2024/03/30 14:11:43;;;;;;;4.65;1.92;;;;;;;13.50;62.80;98067.31;10421074;28;20493;-60
2024/03/30 14:16:44;;;;;;;5.55;1.80;;;;;;;13.35;63.12;98059.13;10437285;28;20084;-60
2024/03/30 14:21:45;;;;;;;5.72;2.03;;;;;;;13.54;62.90;98055.50;10420737;28;20052;-60
2024/03/30 14:26:46;;;;;;;7.20;2.83;;;;;;;13.71;62.52;98067.75;10420804;28;20052;-60
2024/03/30 14:31:47;;;;;;;5.50;2.40;;;;;;;13.85;62.62;98067.19;10437124;28;20041;-60
2024/03/30 14:36:48;;;;;;;7.03;2.67;;;;;;;13.97;62.43;98078.22;10436918;28;20075;-60
2024/03/30 14:41:49;;;;;;;8.48;3.13;;;;;;;14.01;62.07;98088.28;10436579;28;20157;-60
2024/03/30 14:46:50;;;;;;;9.40;2.90;;;;;;;13.87;62.44;98106.44;10420356;28;20102;-61
2024/03/30 14:51:51;;;;;;;9.02;2.83;;;;;;;13.82;62.93;98104.25;10436451;28;20382;-60
2024/03/30 14:56:52;;;;;;;9.32;2.35;;;;;;;13.82;62.85;98120.03;10419099;28;20037;-61
2024/03/30 15:01:53;;;;;;;13.68;4.35;;;;;;;13.62;62.82;98119.44;10435455;28;20041;-60
2024/03/30 15:06:54;;;;;;;18.52;3.95;;;;;;;13.54;63.27;98129.88;10413100;28;20033;-60
2024/03/30 15:11:55;;;;;;;8.25;3.97;;;;;;;13.56;63.17;98129.72;10431652;28;20608;-60
2024/03/30 15:16:56;;;;;;;8.52;2.63;;;;;;;13.50;63.31;98133.78;10435245;28;20132;-61
2024/03/30 15:21:57;;;;;;;6.45;2.20;;;;;;;13.58;63.27;98131.22;10434446;28;20061;-60
2024/03/30 15:27:02;;;;;;;5.30;2.50;;;;;;;13.62;62.82;98132.56;10435367;28;20047;-60
2024/03/30 15:32:15;;;;;;;8.20;3.58;;;;;;;13.45;63.50;98137.88;10417993;28;20148;-60
2024/03/30 15:37:16;;;;;;;6.47;3.13;;;;;;;13.42;63.69;98146.00;10435784;28;20073;-60
2024/03/30 15:42:17;;;;;;;7.65;2.80;;;;;;;13.41;63.95;98162.75;10432711;28;20791;-60
2024/03/30 15:47:18;;;;;;;7.82;2.15;;;;;;;13.40;63.92;98164.53;10417796;28;20053;-60
2024/03/30 15:52:19;;;;;;;4.07;2.40;;;;;;;13.38;64.08;98157.78;10434034;28;20501;-60
2024/03/30 15:57:20;;;;;;;7.13;3.03;;;;;;;13.33;63.99;98160.84;10433766;28;20041;-60
2024/03/30 16:02:21;;;;;;;14.43;3.40;;;;;;;13.30;64.35;98176.09;10432194;28;20049;-60
2024/03/30 16:07:22;;;;;;;8.70;2.40;;;;;;;13.28;64.06;98184.13;10430852;28;20119;-60
2024/03/30 16:12:23;;;;;;;5.55;2.10;;;;;;;13.09;64.22;98186.91;10408196;28;20616;-60
2024/03/30 16:17:24;;;;;;;4.97;2.17;;;;;;;13.02;64.74;98188.47;10430948;28;20045;-61
2024/03/30 16:22:25;;;;;;;10.35;3.15;;;;;;;12.95;64.60;98176.91;10396377;28;20045;-60
2024/03/30 16:27:26;;;;;;;7.60;3.80;;;;;;;12.96;64.63;98171.50;10463953;28;20049;-60
2024/03/30 16:32:27;;;;;;;12.25;3.42;;;;;;;12.98;64.96;98195.00;10426913;28;20106;-60
2024/03/30 16:37:28;;;;;;;5.63;2.65;;;;;;;12.99;64.68;98186.13;10431483;28;20091;-60
2024/03/30 16:42:29;;;;;;;6.68;3.33;;;;;;;12.98;64.77;98208.94;10415178;28;21242;-60
2024/03/30 16:47:30;;;;;;;6.63;3.40;;;;;;;12.99;64.89;98220.25;10431173;28;20608;-60
2024/03/30 16:52:31;;;;;;;6.15;2.72;;;;;;;12.91;65.05;98239.38;10431217;28;20072;-60
2024/03/30 16:57:32;;;;;;;7.65;2.10;;;;;;;12.82;65.13;98240.22;10431934;28;20045;-60
2024/03/30 17:02:33;;;;;;;5.50;2.53;;;;;;;12.83;65.30;98231.41;10427891;28;20436;-60
2024/03/30 17:07:35;;;;;;;10.52;3.67;;;;;;;13.01;65.03;98236.69;10428901;28;20061;-60
2024/03/30 17:12:38;;;;;;;7.07;2.13;;;;;;;13.00;64.99;98244.72;10428541;28;20057;-60
2024/03/30 17:17:40;;;;;;;4.22;1.85;;;;;;;12.96;64.91;98257.31;10427933;28;20045;-60
2024/03/30 17:22:41;;;;;;;7.65;3.20;;;;;;;12.89;65.14;98250.97;10439252;28;20940;-60
2024/03/30 17:27:42;;;;;;;5.07;2.13;;;;;;;12.68;65.25;98258.28;10440440;28;20064;-60
2024/03/30 17:32:43;;;;;;;5.75;1.90;;;;;;;12.46;65.70;98274.34;10424847;28;20488;-60
2024/03/30 17:37:46;;;;;;;4.53;2.00;;;;;;;12.24;65.97;98280.75;10443893;28;20041;-60
2024/03/30 17:42:47;;;;;;;7.20;3.45;;;;;;;12.22;65.87;98294.97;10443029;28;20053;-61
2024/03/30 17:47:48;;;;;;;7.63;2.20;;;;;;;12.14;65.95;98303.53;10444153;28;20037;-61
2024/03/30 17:52:49;;;;;;;7.63;2.35;;;;;;;12.11;65.89;98306.41;10443116;28;20505;-60
2024/03/30 17:57:50;;;;;;;7.40;2.40;;;;;;;12.04;65.74;98297.47;10440423;28;20041;-60
2024/03/30 18:02:53;;;;;;;5.80;2.72;;;;;;;11.92;65.65;98286.34;10439007;28;20045;-60
2024/03/30 18:07:55;;;;;;;7.95;2.85;;;;;;;11.79;66.05;98285.78;10423228;28;20051;-60
2024/03/30 18:12:56;;;;;;;4.88;2.50;;;;;;;11.69;66.27;98290.19;10439501;28;20061;-61
2024/03/30 18:17:59;;;;;;;6.43;3.35;;;;;;;11.68;66.26;98298.19;10439134;28;20485;-60
2024/03/30 18:23:04;;;;;;;9.93;3.72;;;;;;;11.61;66.34;98292.69;10440290;28;20045;-60
2024/03/30 18:28:12;;;;;;;10.32;4.75;;;;;;;11.50;66.43;98302.47;10439437;28;20559;-60
2024/03/30 18:33:15;;;;;;;15.20;5.60;;;;;;;11.44;66.54;98310.88;10434990;28;20454;-61
2024/03/30 18:38:19;;;;;;;21.10;8.30;;;;;;;11.39;66.49;98303.41;10433225;28;20032;-60
2024/03/30 18:43:20;;;;;;;11.60;6.28;;;;;;;11.16;66.61;98318.53;10434888;28;20053;-60
2024/03/30 18:48:22;;;;;;;9.50;4.55;;;;;;;11.02;66.61;98297.94;10432155;28;20136;-60
2024/03/30 18:53:23;;;;;;;16.98;4.05;;;;;;;10.85;67.14;98288.09;10431326;28;20044;-60
2024/03/30 18:58:24;;;;;;;9.20;3.50;;;;;;;10.82;67.12;98291.00;10426775;28;20037;-60
2024/03/30 19:03:27;;;;;;;14.80;4.53;;;;;;;10.73;67.06;98288.34;10430907;28;20087;-60
2024/03/30 19:08:29;;;;;;;8.68;3.25;;;;;;;10.53;67.19;98292.66;10429725;28;20094;-60
2024/03/30 19:13:30;;;;;;;7.95;3.65;;;;;;;10.48;67.14;98285.22;10430391;28;20138;-60
2024/03/30 19:18:31;;;;;;;9.23;4.13;;;;;;;10.48;67.07;98289.63;10431797;28;20717;-60
2024/03/30 19:23:34;;;;;;;7.88;3.15;;;;;;;10.45;67.26;98287.28;10432666;28;20099;-60
2024/03/30 19:28:35;;;;;;;11.02;3.72;;;;;;;10.43;67.07;98291.78;10430414;28;20608;-60
2024/03/30 19:33:37;;;;;;;8.45;3.50;;;;;;;10.46;67.06;98289.75;10412906;28;20074;-60
2024/03/30 19:38:38;;;;;;;6.53;2.88;;;;;;;10.54;67.07;98302.19;10429681;28;20037;-60
2024/03/30 19:43:40;;;;;;;7.78;3.47;;;;;;;10.61;66.81;98305.06;10427118;28;20037;-60
2024/03/30 19:48:41;;;;;;;12.43;3.80;;;;;;;10.50;66.87;98319.09;10425824;28;20056;-60
2024/03/30 19:53:42;;;;;;;8.18;2.90;;;;;;;10.41;66.76;98322.47;10424858;28;20095;-60
2024/03/30 19:58:44;;;;;;;11.43;2.97;;;;;;;10.42;66.70;98313.66;10412068;28;20094;-60
2024/03/30 20:03:45;;;;;;;5.55;2.30;;;;;;;10.48;66.71;98308.75;10415761;28;20044;-60
2024/03/30 20:08:46;;;;;;;3.22;1.90;;;;;;;10.46;66.58;98304.63;10434141;28;20047;-60
2024/03/30 20:13:49;;;;;;;4.63;1.92;;;;;;;10.38;66.45;98299.19;10432849;28;20053;-60
2024/03/30 20:18:50;;;;;;;7.88;3.03;;;;;;;10.29;66.34;98302.59;10433557;28;20070;-60
2024/03/30 20:23:51;;;;;;;8.27;2.50;;;;;;;10.17;66.32;98308.84;10431786;28;20098;-61
2024/03/30 20:28:52;;;;;;;14.40;6.20;;;;;;;10.02;66.52;98300.50;10433556;28;20067;-60
2024/03/30 20:33:53;;;;;;;11.07;3.90;;;;;;;9.86;66.68;98314.94;10432338;28;20115;-60
2024/03/30 20:38:55;;;;;;;8.63;2.20;;;;;;;9.76;66.67;98308.81;10415986;28;20107;-60
2024/03/30 20:43:56;;;;;;;7.50;3.33;;;;;;;9.68;66.91;98324.28;10426954;28;20043;-60
2024/03/30 20:48:57;;;;;;;6.07;2.63;;;;;;;9.58;66.76;98329.41;10425848;28;20233;-60
2024/03/30 20:53:58;;;;;;;10.05;3.75;;;;;;;9.40;66.90;98310.81;10407746;28;20056;-60
2024/03/30 20:58:59;;;;;;;7.80;2.83;;;;;;;9.35;67.08;98315.59;10424775;28;20056;-60
2024/03/30 21:04:01;;;;;;;5.82;2.50;;;;;;;9.42;67.12;98314.13;10411601;28;20070;-62
2024/03/30 21:09:02;;;;;;;10.50;2.25;;;;;;;9.55;66.93;98306.97;10429947;28;20978;-60
2024/03/30 21:14:06;;;;;;;7.55;1.90;;;;;;;9.44;67.06;98301.00;10427341;28;20048;-60
2024/03/30 21:19:07;;;;;;;10.50;2.60;;;;;;;9.56;67.10;98305.22;10431260;28;20080;-60
2024/03/30 21:24:09;;;;;;;6.97;2.28;;;;;;;9.55;67.22;98309.59;10430444;28;20068;-60
2024/03/30 21:29:14;;;;;;;5.97;2.88;;;;;;;9.50;66.97;98308.31;10414586;28;20067;-60
2024/03/30 21:34:15;;;;;;;11.23;2.72;;;;;;;9.47;66.96;98305.94;10414054;28;20103;-60
2024/03/30 21:39:18;;;;;;;7.03;2.55;;;;;;;9.54;67.08;98307.13;10429953;28;20049;-60
2024/03/30 21:44:20;;;;;;;12.52;3.60;;;;;;;9.54;66.79;98283.63;10413350;28;20057;-59
2024/03/30 21:49:22;;;;;;;10.68;3.75;;;;;;;9.39;66.79;98284.84;10430440;28;20053;-60
2024/03/30 21:54:23;;;;;;;5.55;2.90;;;;;;;9.29;66.80;98295.22;10429848;28;20087;-59
2024/03/30 21:59:24;;;;;;;9.00;2.40;;;;;;;9.13;66.89;98279.16;10415820;28;20045;-60
2024/03/30 22:04:27;;;;;;;9.50;2.45;;;;;;;8.98;67.03;98282.13;10430047;28;20121;-60
2024/03/30 22:09:28;;;;;;;17.23;3.72;;;;;;;8.93;67.02;98279.06;10435274;28;20413;-60
2024/03/30 22:14:29;;;;;;;10.00;4.10;;;;;;;8.85;67.13;98292.72;10438204;28;20049;-60
2024/03/30 22:19:31;;;;;;;11.43;3.92;;;;;;;8.81;67.35;98288.69;10437471;28;20142;-60
2024/03/30 22:24:32;;;;;;;6.95;3.22;;;;;;;8.74;67.30;98293.53;10436940;28;20166;-59
2024/03/30 22:29:33;;;;;;;14.32;5.47;;;;;;;8.54;67.27;98294.28;10437328;28;20491;-59
2024/03/30 22:34:34;;;;;;;8.88;3.17;;;;;;;8.40;67.11;98291.06;10420153;28;20521;-59
2024/03/30 22:39:35;;;;;;;6.68;3.13;;;;;;;8.23;67.35;98286.31;10420677;28;20427;-59
2024/03/30 22:44:36;;;;;;;7.60;3.80;;;;;;;8.25;67.65;98294.81;10419859;28;20059;-59
2024/03/30 22:49:37;;;;;;;8.52;3.45;;;;;;;8.36;67.58;98284.44;10436368;28;20132;-60
2024/03/30 22:54:38;;;;;;;8.60;3.47;;;;;;;8.45;67.43;98284.53;10435747;28;20076;-59
2024/03/30 22:59:40;;;;;;;11.20;4.05;;;;;;;8.52;67.46;98284.91;10468841;28;20047;-59
2024/03/30 23:04:42;;;;;;;8.90;4.05;;;;;;;8.40;67.22;98291.91;10435383;28;20094;-59
2024/03/30 23:09:42;;;;;;;14.68;4.20;;;;;;;8.42;67.38;98304.81;10435372;28;20041;-59
2024/03/30 23:14:43;;;;;;;9.13;3.33;;;;;;;8.52;67.25;98303.97;10435175;28;20107;-60
2024/03/30 23:19:48;;;;;;;5.95;1.98;;;;;;;8.66;67.10;98292.47;10434933;28;20098;-60
2024/03/30 23:24:49;;;;;;;8.00;2.50;;;;;;;8.73;66.93;98304.91;10450928;28;20057;-59
2024/03/30 23:29:49;;;;;;;9.95;2.40;;;;;;;8.80;66.66;98297.44;10434986;28;20451;-60
2024/03/30 23:34:51;;;;;;;9.27;2.38;;;;;;;8.64;66.80;98289.16;10434089;28;20045;-59